createdAt,value
2022-08-26T00:02:20.826Z,99892.84
2022-08-26T00:06:23.233Z,99895.00
2022-08-26T00:10:25.871Z,99900.50
2022-08-26T00:14:30.965Z,99901.22
2022-08-26T00:18:33.462Z,99886.84
2022-08-26T00:22:40.835Z,99893.66
2022-08-26T00:26:42.570Z,99888.88
2022-08-26T00:30:48.319Z,99890.88
2022-08-26T00:34:53.647Z,99889.63
2022-08-26T00:38:55.339Z,99873.88
2022-08-26T00:42:57.141Z,99874.44
2022-08-26T00:47:01.556Z,99873.56
2022-08-26T00:51:14.782Z,99879.25
2022-08-26T00:55:27.513Z,99876.44
2022-08-26T00:59:39.832Z,99881.09
2022-08-26T01:03:42.209Z,99867.78
2022-08-26T01:07:44.595Z,99878.06
2022-08-26T01:11:47.375Z,99878.69
2022-08-26T01:15:55.435Z,99873.50
2022-08-26T01:20:03.495Z,99884.97
2022-08-26T01:24:05.628Z,99869.66
2022-08-26T01:28:12.804Z,99888.38
2022-08-26T01:32:19.513Z,99865.94
2022-08-26T01:36:21.321Z,99870.50
2022-08-26T01:40:32.098Z,99873.44
2022-08-26T01:44:38.801Z,99884.25
2022-08-26T01:48:40.735Z,99877.16
2022-08-26T01:52:43.761Z,99881.84
2022-08-26T01:56:46.672Z,99888.09
2022-08-26T02:00:55.700Z,99892.19
2022-08-26T02:05:07.638Z,99882.03
2022-08-26T02:09:16.646Z,99885.13
2022-08-26T02:13:18.580Z,99899.78
2022-08-26T02:17:32.614Z,99901.75
2022-08-26T02:21:41.642Z,99901.47
2022-08-26T02:26:03.059Z,99899.22
2022-08-26T02:30:17.074Z,99896.16
2022-08-26T02:34:31.410Z,99891.88
2022-08-26T02:38:33.716Z,99883.72
2022-08-26T02:42:35.556Z,99873.88
2022-08-26T02:46:38.458Z,99880.47
2022-08-26T02:50:41.929Z,99886.97
2022-08-26T02:54:44.576Z,99878.19
2022-08-26T02:58:47.571Z,99881.53
2022-08-26T03:02:49.292Z,99880.53
2022-08-26T03:06:52.890Z,99876.72
2022-08-26T03:10:54.871Z,99873.94
2022-08-26T03:14:56.847Z,99883.56
2022-08-26T03:19:00.884Z,99880.59
2022-08-26T03:23:02.665Z,99868.75
2022-08-26T03:27:09.029Z,99876.72
2022-08-26T03:31:10.897Z,99872.22
2022-08-26T03:35:12.715Z,99881.00
2022-08-26T03:39:14.506Z,99860.13
2022-08-26T03:43:17.260Z,99863.84
2022-08-26T03:47:19.086Z,99856.66
2022-08-26T03:51:21.359Z,99860.16
2022-08-26T03:55:27.002Z,99868.19
2022-08-26T03:59:29.093Z,99863.03
2022-08-26T04:03:49.345Z,99858.78
2022-08-26T04:07:51.679Z,99849.34
2022-08-26T04:11:53.543Z,99841.00
2022-08-26T04:15:55.361Z,99843.66
2022-08-26T04:19:57.140Z,99844.66
2022-08-26T04:23:59.040Z,99850.81
2022-08-26T04:28:05.714Z,99858.56
2022-08-26T04:32:08.750Z,99851.84
2022-08-26T04:36:11.433Z,99860.38
2022-08-26T04:40:13.407Z,99853.00
2022-08-26T04:44:15.467Z,99855.97
2022-08-26T04:48:17.252Z,99851.81
2022-08-26T04:52:20.084Z,99836.28
2022-08-26T04:56:21.915Z,99837.69
2022-08-26T05:00:23.957Z,99829.72
2022-08-26T05:04:28.232Z,99825.59
2022-08-26T05:08:31.236Z,99821.66
2022-08-26T05:12:33.083Z,99823.13
2022-08-26T05:16:34.879Z,99836.28
2022-08-26T05:20:45.606Z,99823.53
2022-08-26T05:24:49.356Z,99823.28
2022-08-26T05:28:54.746Z,99832.50
2022-08-26T05:32:56.885Z,99827.03
2022-08-26T05:36:58.959Z,99826.59
2022-08-26T05:41:02.116Z,99812.66
2022-08-26T05:45:06.025Z,99818.41
2022-08-26T05:49:12.495Z,99802.88
2022-08-26T05:53:17.992Z,99804.81
2022-08-26T05:57:19.858Z,99798.97
2022-08-26T06:01:26.493Z,99800.50
2022-08-26T06:05:28.359Z,99785.19
2022-08-26T06:09:30.256Z,99776.47
2022-08-26T06:13:32.701Z,99782.63
2022-08-26T06:17:36.784Z,99802.13
2022-08-26T06:21:40.572Z,99788.13
2022-08-26T06:25:43.054Z,99777.44
2022-08-26T06:29:45.240Z,99781.00
2022-08-26T06:33:47.093Z,99772.19
2022-08-26T06:37:49.701Z,99768.94
2022-08-26T06:41:52.047Z,99758.06
2022-08-26T06:46:02.562Z,99753.19
2022-08-26T06:50:07.159Z,99744.72
2022-08-26T06:54:09.486Z,99728.13
2022-08-26T06:58:13.723Z,99740.59
2022-08-26T07:02:15.650Z,99734.31
2022-08-26T07:06:19.930Z,99727.53
2022-08-26T07:10:21.701Z,99737.75
2022-08-26T07:14:24.952Z,99727.19
2022-08-26T07:18:28.261Z,99723.13
2022-08-26T07:22:30.765Z,99732.00
2022-08-26T07:26:33.575Z,99722.09
2022-08-26T07:30:39.285Z,99720.16
2022-08-26T07:34:42.727Z,99725.47
2022-08-26T07:38:45.443Z,99717.38
2022-08-26T07:42:47.679Z,99724.56
2022-08-26T07:46:53.144Z,99704.78
2022-08-26T07:50:55.325Z,99706.78
2022-08-26T07:54:58.414Z,99703.41
2022-08-26T07:59:00.253Z,99696.88
2022-08-26T08:03:04.073Z,99696.41
2022-08-26T08:07:05.997Z,99693.50
2022-08-26T08:11:12.376Z,99698.13
2022-08-26T08:15:14.614Z,99689.13
2022-08-26T08:19:16.725Z,99684.75
2022-08-26T08:23:18.492Z,99679.88
2022-08-26T08:27:23.817Z,99677.63
2022-08-26T08:31:54.410Z,99679.84
2022-08-26T08:35:51.230Z,99676.31
2022-08-26T08:39:54.065Z,99666.34
2022-08-26T08:43:56.796Z,99670.13
2022-08-26T08:48:30.701Z,99653.03
2022-08-26T08:52:36.275Z,99646.59
2022-08-26T08:56:47.087Z,99650.69
2022-08-26T09:01:00.551Z,99657.38
2022-08-26T09:05:23.293Z,99647.94
2022-08-26T09:09:45.966Z,99633.25
2022-08-26T09:13:53.882Z,99620.28
2022-08-26T09:18:24.883Z,99626.84
2022-08-26T09:22:35.856Z,99627.41
2022-08-26T09:26:41.083Z,99630.94
2022-08-26T09:30:43.220Z,99626.84
2022-08-26T09:35:08.769Z,99621.78
2022-08-26T09:39:30.357Z,99629.38
2022-08-26T09:43:32.204Z,99626.91
2022-08-26T09:47:53.194Z,99635.38
2022-08-26T09:52:27.883Z,99643.50
2022-08-26T09:56:35.391Z,99625.31
2022-08-26T10:00:43.606Z,99619.00
2022-08-26T10:04:54.262Z,99624.41
2022-08-26T10:08:59.066Z,99625.78
2022-08-26T10:13:19.755Z,99616.09
2022-08-26T10:17:32.228Z,99614.53
2022-08-26T10:21:56.489Z,99622.84
2022-08-26T10:26:05.602Z,99619.38
2022-08-26T10:30:13.556Z,99614.53
2022-08-26T10:34:16.347Z,99614.22
2022-08-26T10:38:34.719Z,99587.78
2022-08-26T10:43:11.350Z,99593.78
2022-08-26T10:47:18.681Z,99566.09
2022-08-26T10:51:35.642Z,99561.53
2022-08-26T10:55:54.241Z,99570.06
2022-08-26T11:00:40.963Z,99587.19
2022-08-26T11:05:03.462Z,99584.09
2022-08-26T11:09:08.616Z,99571.06
2022-08-26T11:13:12.025Z,99553.66
2022-08-26T11:17:14.052Z,99559.69
2022-08-26T11:21:52.773Z,99574.19
2022-08-26T11:26:20.368Z,99587.88
2022-08-26T11:30:41.615Z,99574.34
2022-08-26T11:34:57.913Z,99557.53
2022-08-26T11:39:02.153Z,99546.78
2022-08-26T11:43:20.856Z,99529.31
2022-08-26T11:47:31.646Z,99512.06
2022-08-26T11:51:38.207Z,99501.00
2022-08-26T11:55:42.760Z,99488.13
2022-08-26T11:59:44.834Z,99480.41
2022-08-26T12:03:49.517Z,99464.91
2022-08-26T12:07:51.372Z,99474.88
2022-08-26T12:12:14.158Z,99462.94
2022-08-26T12:16:16.245Z,99459.44
2022-08-26T12:20:48.281Z,99459.56
2022-08-26T12:24:54.594Z,99461.47
2022-08-26T12:29:18.096Z,99462.03
2022-08-26T12:33:26.146Z,99452.22
2022-08-26T12:37:29.097Z,99460.00
2022-08-26T12:41:54.977Z,99445.59
2022-08-26T12:46:00.003Z,99446.44
2022-08-26T12:50:20.360Z,99453.38
2022-08-26T12:54:42.157Z,99448.31
2022-08-26T12:58:44.184Z,99438.50
2022-08-26T13:02:46.268Z,99434.44
2022-08-26T13:06:48.260Z,99437.13
2022-08-26T13:11:12.527Z,99429.34
2022-08-26T13:15:14.267Z,99415.50
2022-08-26T13:19:25.400Z,99418.44
2022-08-26T13:23:27.850Z,99404.91
2022-08-26T13:27:29.688Z,99404.03
2022-08-26T13:31:32.522Z,99408.16
2022-08-26T13:35:35.300Z,99418.78
2022-08-26T13:39:38.455Z,99426.16
2022-08-26T13:43:40.239Z,99427.69
2022-08-26T13:47:42.018Z,99424.84
2022-08-26T13:51:43.973Z,99422.59
2022-08-26T13:55:45.831Z,99428.56
2022-08-26T13:59:47.612Z,99422.16
2022-08-26T14:03:49.480Z,99417.34
2022-08-26T14:07:51.400Z,99427.03
2022-08-26T14:11:54.342Z,99424.03
2022-08-26T14:15:58.703Z,99420.84
2022-08-26T14:20:00.525Z,99424.47
2022-08-26T14:24:03.299Z,99416.69
2022-08-26T14:28:05.322Z,99409.78
2022-08-26T14:32:13.365Z,99404.69
2022-08-26T14:36:32.149Z,99411.72
2022-08-26T14:40:34.188Z,99391.00
2022-08-26T14:44:40.383Z,99398.94
2022-08-26T14:48:42.245Z,99396.63
2022-08-26T14:53:02.929Z,99372.19
2022-08-26T14:57:07.424Z,99358.81
2022-08-26T15:01:09.244Z,99380.25
2022-08-26T15:05:11.689Z,99367.69
2022-08-26T15:09:15.091Z,99361.09
2022-08-26T15:13:16.861Z,99371.06
2022-08-26T15:17:18.647Z,99392.78
2022-08-26T15:21:20.628Z,99384.34
2022-08-26T15:25:22.598Z,99398.00
2022-08-26T15:29:24.453Z,99397.50
2022-08-26T15:33:26.454Z,99402.59
2022-08-26T15:37:28.226Z,99387.28
2022-08-26T15:41:30.051Z,99388.53
2022-08-26T15:45:37.004Z,99389.03
2022-08-26T15:49:39.874Z,99390.41
2022-08-26T15:53:41.645Z,99393.34
2022-08-26T15:57:43.504Z,99426.31
2022-08-26T16:01:46.865Z,99427.09
2022-08-26T16:05:48.780Z,99411.31
2022-08-26T16:09:54.245Z,99407.59
2022-08-26T16:13:57.214Z,99434.56
2022-08-26T16:18:01.954Z,99438.53
2022-08-26T16:22:07.689Z,99435.28
2022-08-26T16:26:10.946Z,99435.31
2022-08-26T16:30:13.512Z,99434.50
2022-08-26T16:34:15.316Z,99430.44
2022-08-26T16:38:17.163Z,99425.66
2022-08-26T16:42:18.964Z,99414.91
2022-08-26T16:46:23.667Z,99407.13
2022-08-26T16:50:25.736Z,99407.38
2022-08-26T16:54:27.577Z,99411.31
2022-08-26T16:58:30.045Z,99423.59
2022-08-26T17:02:31.927Z,99426.44
2022-08-26T17:06:34.185Z,99424.31
2022-08-26T17:10:36.410Z,99432.03
2022-08-26T17:14:38.335Z,99446.78
2022-08-26T17:18:41.141Z,99436.50
2022-08-26T17:22:45.764Z,99441.53
2022-08-26T17:26:48.415Z,99415.19
2022-08-26T17:30:59.885Z,99400.03
2022-08-26T17:35:02.337Z,99404.81
2022-08-26T17:39:04.340Z,99400.56
2022-08-26T17:43:10.352Z,99397.31
2022-08-26T17:47:14.636Z,99378.94
2022-08-26T17:51:19.429Z,99385.75
2022-08-26T17:55:22.485Z,99377.38
2022-08-26T17:59:25.185Z,99402.66
2022-08-26T18:03:32.639Z,99411.16
2022-08-26T18:07:39.053Z,99408.69
2022-08-26T18:11:46.210Z,99417.88
2022-08-26T18:15:48.137Z,99421.06
2022-08-26T18:19:50.118Z,99423.47
2022-08-26T18:23:55.160Z,99421.88
2022-08-26T18:27:59.998Z,99417.66
2022-08-26T18:32:02.201Z,99421.63
2022-08-26T18:36:04.407Z,99421.47
2022-08-26T18:40:08.477Z,99463.56
2022-08-26T18:44:13.593Z,99488.88
2022-08-26T18:48:16.829Z,99508.47
2022-08-26T18:52:19.803Z,99502.13
2022-08-26T18:56:21.848Z,99515.50
2022-08-26T19:00:23.956Z,99514.13
2022-08-26T19:04:25.833Z,99508.19
2022-08-26T19:08:27.622Z,99504.91
2022-08-26T19:12:30.080Z,99498.38
2022-08-26T19:16:34.839Z,99495.59
2022-08-26T19:20:46.407Z,99507.84
2022-08-26T19:24:48.505Z,99510.03
2022-08-26T19:28:50.517Z,99509.84
2022-08-26T19:32:52.326Z,99497.41
2022-08-26T19:36:54.144Z,99486.72
2022-08-26T19:40:55.970Z,99543.53
2022-08-26T19:45:24.864Z,99539.59
2022-08-26T19:49:27.101Z,99542.81
2022-08-26T19:53:28.857Z,99534.31
2022-08-26T19:57:30.702Z,99493.28
2022-08-26T20:01:32.610Z,99494.41
2022-08-26T20:05:34.523Z,99497.03
2022-08-26T20:09:38.372Z,99484.72
2022-08-26T20:13:41.649Z,99493.53
2022-08-26T20:17:43.520Z,99484.63
2022-08-26T20:21:45.671Z,99500.09
2022-08-26T20:25:47.554Z,99510.28
2022-08-26T20:29:49.881Z,99517.50
2022-08-26T20:33:54.617Z,99560.59
2022-08-26T20:37:56.414Z,99570.50
2022-08-26T20:41:58.305Z,99539.28
2022-08-26T20:46:00.921Z,99532.66
2022-08-26T20:50:03.444Z,99531.16
2022-08-26T20:54:06.481Z,99530.53
2022-08-26T20:58:08.390Z,99529.66
2022-08-26T21:02:10.311Z,99536.88
2022-08-26T21:06:12.451Z,99533.91
2022-08-26T21:10:14.311Z,99537.06
2022-08-26T21:14:17.235Z,99543.84
2022-08-26T21:18:19.356Z,99548.38
2022-08-26T21:22:21.307Z,99530.34
2022-08-26T21:26:23.212Z,99534.16
2022-08-26T21:30:25.170Z,99557.81
2022-08-26T21:34:27.013Z,99553.66
2022-08-26T21:38:30.843Z,99551.06
2022-08-26T21:42:34.621Z,99553.84
2022-08-26T21:46:37.305Z,99525.44
2022-08-26T21:50:39.133Z,99526.72
2022-08-26T21:54:41.084Z,99527.19
2022-08-26T21:58:52.505Z,99523.75
2022-08-26T22:02:54.394Z,99509.00
2022-08-26T22:06:57.668Z,99499.41
2022-08-26T22:11:01.131Z,99490.59
2022-08-26T22:15:03.629Z,99491.63
2022-08-26T22:19:05.673Z,99509.03
2022-08-26T22:23:07.761Z,99511.91
2022-08-26T22:27:09.598Z,99502.31
2022-08-26T22:31:12.417Z,99521.81
2022-08-26T22:35:28.739Z,99528.66
2022-08-26T22:39:31.406Z,99529.97
2022-08-26T22:43:33.127Z,99527.81
2022-08-26T22:47:34.938Z,99535.09
2022-08-26T22:51:39.167Z,99535.47
2022-08-26T22:55:43.710Z,99525.19
2022-08-26T22:59:45.552Z,99530.97
2022-08-26T23:03:47.509Z,99535.25
2022-08-26T23:07:50.627Z,99525.75
2022-08-26T23:11:54.972Z,99533.75
2022-08-26T23:16:02.235Z,99544.75
2022-08-26T23:20:07.390Z,99545.91
2022-08-26T23:24:09.440Z,99555.72
2022-08-26T23:28:12.796Z,99564.38
2022-08-26T23:32:14.648Z,99577.09
2022-08-26T23:36:17.904Z,99592.16
2022-08-26T23:40:29.054Z,99585.31
2022-08-26T23:44:31.069Z,99589.63
2022-08-26T23:48:32.802Z,99587.47
2022-08-26T23:52:56.163Z,99579.03
2022-08-26T23:56:58.042Z,99583.34
